sensor_id;sensor_type;location;lat;lon;timestamp;P1;durP1;ratioP1;P2;durP2;ratioP2
20076;SDS011;12348;42.710;23.378;2023-01-15T00:00:32;27.50;;;12.10;;
20076;SDS011;12348;42.710;23.378;2023-01-15T00:02:58;26.73;;;11.30;;
20076;SDS011;12348;42.710;23.378;2023-01-15T00:05:25;27.20;;;13.37;;
20076;SDS011;12348;42.710;23.378;2023-01-15T00:07:52;20.90;;;10.73;;
20076;SDS011;12348;42.710;23.378;2023-01-15T00:10:19;26.33;;;11.37;;
20076;SDS011;12348;42.710;23.378;2023-01-15T00:12:46;33.03;;;11.93;;
20076;SDS011;12348;42.710;23.378;2023-01-15T00:15:14;30.00;;;13.27;;
20076;SDS011;12348;42.710;23.378;2023-01-15T00:17:42;28.27;;;12.07;;
20076;SDS011;12348;42.710;23.378;2023-01-15T00:20:10;28.07;;;11.07;;
20076;SDS011;12348;42.710;23.378;2023-01-15T00:22:37;22.60;;;11.43;;
20076;SDS011;12348;42.710;23.378;2023-01-15T00:25:05;23.23;;;11.50;;
20076;SDS011;12348;42.710;23.378;2023-01-15T00:27:49;25.30;;;12.03;;
20076;SDS011;12348;42.710;23.378;2023-01-15T00:30:16;31.43;;;12.77;;
20076;SDS011;12348;42.710;23.378;2023-01-15T00:32:45;31.27;;;14.03;;
20076;SDS011;12348;42.710;23.378;2023-01-15T00:35:14;22.87;;;11.97;;
20076;SDS011;12348;42.710;23.378;2023-01-15T00:37:42;29.13;;;12.80;;
20076;SDS011;12348;42.710;23.378;2023-01-15T00:40:11;32.43;;;14.57;;
20076;SDS011;12348;42.710;23.378;2023-01-15T00:42:40;27.70;;;13.30;;
20076;SDS011;12348;42.710;23.378;2023-01-15T00:45:08;26.50;;;11.77;;
20076;SDS011;12348;42.710;23.378;2023-01-15T00:47:36;25.40;;;11.67;;
20076;SDS011;12348;42.710;23.378;2023-01-15T00:50:04;28.80;;;12.13;;
20076;SDS011;12348;42.710;23.378;2023-01-15T00:52:34;27.30;;;12.00;;
20076;SDS011;12348;42.710;23.378;2023-01-15T00:55:01;30.40;;;14.07;;
20076;SDS011;12348;42.710;23.378;2023-01-15T00:57:28;30.03;;;11.63;;
20076;SDS011;12348;42.710;23.378;2023-01-15T00:59:54;24.73;;;12.43;;
20076;SDS011;12348;42.710;23.378;2023-01-15T01:02:22;25.80;;;12.10;;
20076;SDS011;12348;42.710;23.378;2023-01-15T01:04:48;24.07;;;11.43;;
20076;SDS011;12348;42.710;23.378;2023-01-15T01:07:17;35.17;;;12.50;;
20076;SDS011;12348;42.710;23.378;2023-01-15T01:09:43;29.77;;;12.57;;
20076;SDS011;12348;42.710;23.378;2023-01-15T01:12:10;33.67;;;13.93;;
20076;SDS011;12348;42.710;23.378;2023-01-15T01:14:37;26.20;;;11.50;;
20076;SDS011;12348;42.710;23.378;2023-01-15T01:17:04;27.40;;;11.30;;
20076;SDS011;12348;42.710;23.378;2023-01-15T01:19:31;28.97;;;12.50;;
20076;SDS011;12348;42.710;23.378;2023-01-15T01:21:58;26.27;;;12.67;;
20076;SDS011;12348;42.710;23.378;2023-01-15T01:24:26;29.63;;;13.77;;
20076;SDS011;12348;42.710;23.378;2023-01-15T01:26:53;26.40;;;12.73;;
20076;SDS011;12348;42.710;23.378;2023-01-15T01:29:20;27.30;;;13.03;;
20076;SDS011;12348;42.710;23.378;2023-01-15T01:31:48;28.10;;;12.63;;
20076;SDS011;12348;42.710;23.378;2023-01-15T01:34:15;30.90;;;14.13;;
20076;SDS011;12348;42.710;23.378;2023-01-15T01:36:42;25.60;;;12.80;;
20076;SDS011;12348;42.710;23.378;2023-01-15T01:39:11;30.87;;;12.53;;
20076;SDS011;12348;42.710;23.378;2023-01-15T01:41:41;30.97;;;11.90;;
20076;SDS011;12348;42.710;23.378;2023-01-15T01:47:08;27.87;;;12.97;;
20076;SDS011;12348;42.710;23.378;2023-01-15T01:49:39;30.63;;;13.10;;
20076;SDS011;12348;42.710;23.378;2023-01-15T01:52:08;28.87;;;12.67;;
20076;SDS011;12348;42.710;23.378;2023-01-15T01:54:38;32.37;;;12.97;;
20076;SDS011;12348;42.710;23.378;2023-01-15T01:57:09;28.20;;;12.97;;
20076;SDS011;12348;42.710;23.378;2023-01-15T01:59:36;31.27;;;14.10;;
20076;SDS011;12348;42.710;23.378;2023-01-15T02:02:03;30.63;;;13.10;;
20076;SDS011;12348;42.710;23.378;2023-01-15T02:04:31;28.53;;;13.47;;
20076;SDS011;12348;42.710;23.378;2023-01-15T02:06:59;29.40;;;12.40;;
20076;SDS011;12348;42.710;23.378;2023-01-15T02:09:26;24.80;;;11.53;;
20076;SDS011;12348;42.710;23.378;2023-01-15T02:11:55;30.97;;;12.70;;
20076;SDS011;12348;42.710;23.378;2023-01-15T02:14:28;25.50;;;12.17;;
20076;SDS011;12348;42.710;23.378;2023-01-15T02:17:03;20.07;;;10.37;;
20076;SDS011;12348;42.710;23.378;2023-01-15T02:19:39;22.13;;;11.10;;
20076;SDS011;12348;42.710;23.378;2023-01-15T02:22:18;25.83;;;10.77;;
20076;SDS011;12348;42.710;23.378;2023-01-15T02:24:58;26.57;;;10.17;;
20076;SDS011;12348;42.710;23.378;2023-01-15T02:27:31;27.47;;;12.63;;
20076;SDS011;12348;42.710;23.378;2023-01-15T02:30:00;19.93;;;11.27;;
20076;SDS011;12348;42.710;23.378;2023-01-15T02:32:33;30.50;;;13.60;;
20076;SDS011;12348;42.710;23.378;2023-01-15T02:35:08;21.97;;;11.40;;
20076;SDS011;12348;42.710;23.378;2023-01-15T02:37:42;21.00;;;11.73;;
20076;SDS011;12348;42.710;23.378;2023-01-15T02:40:19;27.30;;;11.60;;
20076;SDS011;12348;42.710;23.378;2023-01-15T02:42:49;23.67;;;11.63;;
20076;SDS011;12348;42.710;23.378;2023-01-15T02:45:18;24.43;;;12.07;;
20076;SDS011;12348;42.710;23.378;2023-01-15T02:47:51;32.00;;;14.40;;
20076;SDS011;12348;42.710;23.378;2023-01-15T02:50:20;25.70;;;13.13;;
20076;SDS011;12348;42.710;23.378;2023-01-15T02:52:52;22.80;;;11.30;;
20076;SDS011;12348;42.710;23.378;2023-01-15T02:55:25;25.90;;;13.30;;
20076;SDS011;12348;42.710;23.378;2023-01-15T02:57:58;28.47;;;11.50;;
20076;SDS011;12348;42.710;23.378;2023-01-15T03:00:29;26.83;;;12.93;;
20076;SDS011;12348;42.710;23.378;2023-01-15T03:03:04;30.43;;;12.70;;
20076;SDS011;12348;42.710;23.378;2023-01-15T03:05:38;23.53;;;12.40;;
20076;SDS011;12348;42.710;23.378;2023-01-15T03:08:07;22.77;;;12.53;;
20076;SDS011;12348;42.710;23.378;2023-01-15T03:10:37;26.23;;;12.53;;
20076;SDS011;12348;42.710;23.378;2023-01-15T03:13:14;24.27;;;11.17;;
20076;SDS011;12348;42.710;23.378;2023-01-15T03:15:50;29.07;;;11.97;;
20076;SDS011;12348;42.710;23.378;2023-01-15T03:18:40;21.47;;;11.23;;
20076;SDS011;12348;42.710;23.378;2023-01-15T03:21:10;25.07;;;11.33;;
20076;SDS011;12348;42.710;23.378;2023-01-15T03:23:44;24.07;;;11.67;;
20076;SDS011;12348;42.710;23.378;2023-01-15T03:26:16;28.27;;;12.77;;
20076;SDS011;12348;42.710;23.378;2023-01-15T03:28:45;32.50;;;13.90;;
20076;SDS011;12348;42.710;23.378;2023-01-15T03:31:13;32.23;;;15.03;;
20076;SDS011;12348;42.710;23.378;2023-01-15T03:33:41;31.63;;;14.40;;
20076;SDS011;12348;42.710;23.378;2023-01-15T03:36:08;35.00;;;15.93;;
20076;SDS011;12348;42.710;23.378;2023-01-15T03:38:36;30.67;;;15.30;;
20076;SDS011;12348;42.710;23.378;2023-01-15T03:41:07;24.57;;;12.87;;
20076;SDS011;12348;42.710;23.378;2023-01-15T03:43:45;25.90;;;13.00;;
20076;SDS011;12348;42.710;23.378;2023-01-15T03:46:25;30.07;;;12.57;;
20076;SDS011;12348;42.710;23.378;2023-01-15T03:49:10;28.57;;;13.23;;
20076;SDS011;12348;42.710;23.378;2023-01-15T03:51:47;26.50;;;12.47;;
20076;SDS011;12348;42.710;23.378;2023-01-15T03:54:21;25.73;;;11.60;;
20076;SDS011;12348;42.710;23.378;2023-01-15T03:56:52;28.07;;;10.97;;
20076;SDS011;12348;42.710;23.378;2023-01-15T03:59:29;28.27;;;11.43;;
20076;SDS011;12348;42.710;23.378;2023-01-15T04:02:00;24.20;;;10.50;;
20076;SDS011;12348;42.710;23.378;2023-01-15T04:04:28;26.20;;;10.70;;
20076;SDS011;12348;42.710;23.378;2023-01-15T04:06:56;19.73;;;10.67;;
20076;SDS011;12348;42.710;23.378;2023-01-15T04:09:25;24.83;;;10.83;;
20076;SDS011;12348;42.710;23.378;2023-01-15T04:11:52;21.87;;;10.23;;
20076;SDS011;12348;42.710;23.378;2023-01-15T04:14:23;21.83;;;11.00;;
20076;SDS011;12348;42.710;23.378;2023-01-15T04:16:52;23.97;;;10.67;;
20076;SDS011;12348;42.710;23.378;2023-01-15T04:19:19;22.13;;;10.27;;
20076;SDS011;12348;42.710;23.378;2023-01-15T04:21:46;21.47;;;10.70;;
20076;SDS011;12348;42.710;23.378;2023-01-15T04:24:13;19.87;;;9.33;;
20076;SDS011;12348;42.710;23.378;2023-01-15T04:26:40;23.80;;;9.27;;
20076;SDS011;12348;42.710;23.378;2023-01-15T04:29:06;22.33;;;9.67;;
20076;SDS011;12348;42.710;23.378;2023-01-15T04:31:33;16.33;;;8.03;;
20076;SDS011;12348;42.710;23.378;2023-01-15T04:34:01;20.70;;;9.23;;
20076;SDS011;12348;42.710;23.378;2023-01-15T04:36:28;18.60;;;9.50;;
20076;SDS011;12348;42.710;23.378;2023-01-15T04:38:55;17.43;;;8.70;;
20076;SDS011;12348;42.710;23.378;2023-01-15T04:41:23;21.30;;;10.47;;
20076;SDS011;12348;42.710;23.378;2023-01-15T04:44:08;20.17;;;9.63;;
20076;SDS011;12348;42.710;23.378;2023-01-15T04:46:35;23.57;;;11.13;;
20076;SDS011;12348;42.710;23.378;2023-01-15T04:49:05;19.23;;;10.10;;
20076;SDS011;12348;42.710;23.378;2023-01-15T04:51:34;19.53;;;9.33;;
20076;SDS011;12348;42.710;23.378;2023-01-15T04:54:03;17.27;;;9.83;;
20076;SDS011;12348;42.710;23.378;2023-01-15T04:56:31;21.20;;;9.47;;
20076;SDS011;12348;42.710;23.378;2023-01-15T04:59:02;21.37;;;10.43;;
20076;SDS011;12348;42.710;23.378;2023-01-15T05:01:29;18.33;;;8.73;;
20076;SDS011;12348;42.710;23.378;2023-01-15T05:03:56;16.30;;;9.10;;
20076;SDS011;12348;42.710;23.378;2023-01-15T05:06:24;16.50;;;8.33;;
20076;SDS011;12348;42.710;23.378;2023-01-15T05:08:51;18.43;;;8.53;;
20076;SDS011;12348;42.710;23.378;2023-01-15T05:11:18;17.37;;;8.77;;
20076;SDS011;12348;42.710;23.378;2023-01-15T05:13:45;22.03;;;8.77;;
20076;SDS011;12348;42.710;23.378;2023-01-15T05:16:12;18.67;;;9.47;;
20076;SDS011;12348;42.710;23.378;2023-01-15T05:18:41;19.97;;;9.80;;
20076;SDS011;12348;42.710;23.378;2023-01-15T05:21:15;19.70;;;8.77;;
20076;SDS011;12348;42.710;23.378;2023-01-15T05:23:47;17.63;;;8.07;;
20076;SDS011;12348;42.710;23.378;2023-01-15T05:26:14;17.67;;;8.40;;
20076;SDS011;12348;42.710;23.378;2023-01-15T05:28:42;14.40;;;8.47;;
20076;SDS011;12348;42.710;23.378;2023-01-15T05:31:10;17.70;;;9.10;;
20076;SDS011;12348;42.710;23.378;2023-01-15T05:33:38;20.37;;;8.33;;
20076;SDS011;12348;42.710;23.378;2023-01-15T05:36:07;19.13;;;9.17;;
20076;SDS011;12348;42.710;23.378;2023-01-15T05:38:36;14.87;;;8.23;;
20076;SDS011;12348;42.710;23.378;2023-01-15T05:41:05;22.40;;;8.37;;
20076;SDS011;12348;42.710;23.378;2023-01-15T05:43:48;18.10;;;8.43;;
20076;SDS011;12348;42.710;23.378;2023-01-15T05:46:15;20.73;;;9.67;;
20076;SDS011;12348;42.710;23.378;2023-01-15T05:48:42;16.73;;;8.13;;
20076;SDS011;12348;42.710;23.378;2023-01-15T05:51:09;16.60;;;8.37;;
20076;SDS011;12348;42.710;23.378;2023-01-15T05:53:35;22.23;;;10.10;;
20076;SDS011;12348;42.710;23.378;2023-01-15T05:56:02;17.93;;;8.37;;
20076;SDS011;12348;42.710;23.378;2023-01-15T05:58:31;19.40;;;9.37;;
20076;SDS011;12348;42.710;23.378;2023-01-15T06:00:58;14.40;;;7.47;;
20076;SDS011;12348;42.710;23.378;2023-01-15T06:03:25;17.67;;;9.00;;
20076;SDS011;12348;42.710;23.378;2023-01-15T06:05:53;18.43;;;7.90;;
20076;SDS011;12348;42.710;23.378;2023-01-15T06:08:21;20.50;;;8.53;;
20076;SDS011;12348;42.710;23.378;2023-01-15T06:10:49;17.83;;;10.13;;
20076;SDS011;12348;42.710;23.378;2023-01-15T06:13:16;18.47;;;8.93;;
20076;SDS011;12348;42.710;23.378;2023-01-15T06:15:44;17.07;;;8.03;;
20076;SDS011;12348;42.710;23.378;2023-01-15T06:18:11;18.20;;;9.40;;
20076;SDS011;12348;42.710;23.378;2023-01-15T06:20:38;20.87;;;9.93;;
20076;SDS011;12348;42.710;23.378;2023-01-15T06:23:06;20.80;;;10.10;;
20076;SDS011;12348;42.710;23.378;2023-01-15T06:25:33;21.50;;;10.70;;
20076;SDS011;12348;42.710;23.378;2023-01-15T06:28:01;22.40;;;9.83;;
20076;SDS011;12348;42.710;23.378;2023-01-15T06:30:27;24.53;;;10.80;;
20076;SDS011;12348;42.710;23.378;2023-01-15T06:32:56;20.80;;;10.40;;
20076;SDS011;12348;42.710;23.378;2023-01-15T06:35:22;23.63;;;11.30;;
20076;SDS011;12348;42.710;23.378;2023-01-15T06:37:49;25.40;;;11.37;;
20076;SDS011;12348;42.710;23.378;2023-01-15T06:40:16;26.80;;;12.00;;
20076;SDS011;12348;42.710;23.378;2023-01-15T06:42:43;29.43;;;11.80;;
20076;SDS011;12348;42.710;23.378;2023-01-15T06:45:28;27.27;;;12.60;;
20076;SDS011;12348;42.710;23.378;2023-01-15T06:48:21;25.13;;;13.20;;
20076;SDS011;12348;42.710;23.378;2023-01-15T06:50:48;38.60;;;14.20;;
20076;SDS011;12348;42.710;23.378;2023-01-15T06:53:15;28.63;;;13.27;;
20076;SDS011;12348;42.710;23.378;2023-01-15T06:55:42;55.60;;;23.80;;
20076;SDS011;12348;42.710;23.378;2023-01-15T06:58:09;98.40;;;37.53;;
20076;SDS011;12348;42.710;23.378;2023-01-15T07:00:36;37.70;;;16.77;;
20076;SDS011;12348;42.710;23.378;2023-01-15T07:03:03;33.23;;;15.57;;
20076;SDS011;12348;42.710;23.378;2023-01-15T07:05:31;29.87;;;14.47;;
20076;SDS011;12348;42.710;23.378;2023-01-15T07:07:58;29.40;;;14.00;;
20076;SDS011;12348;42.710;23.378;2023-01-15T07:10:25;41.47;;;16.70;;
20076;SDS011;12348;42.710;23.378;2023-01-15T07:12:52;37.87;;;15.83;;
20076;SDS011;12348;42.710;23.378;2023-01-15T07:15:19;37.77;;;16.07;;
20076;SDS011;12348;42.710;23.378;2023-01-15T07:17:46;39.37;;;17.50;;
20076;SDS011;12348;42.710;23.378;2023-01-15T07:20:12;35.57;;;15.67;;
20076;SDS011;12348;42.710;23.378;2023-01-15T07:22:41;36.83;;;16.67;;
20076;SDS011;12348;42.710;23.378;2023-01-15T07:25:08;38.10;;;16.17;;
20076;SDS011;12348;42.710;23.378;2023-01-15T07:27:35;40.43;;;17.23;;
20076;SDS011;12348;42.710;23.378;2023-01-15T07:30:02;37.27;;;18.60;;
20076;SDS011;12348;42.710;23.378;2023-01-15T07:32:29;30.90;;;14.97;;
20076;SDS011;12348;42.710;23.378;2023-01-15T07:34:56;37.17;;;16.67;;
20076;SDS011;12348;42.710;23.378;2023-01-15T07:37:23;30.73;;;14.93;;
20076;SDS011;12348;42.710;23.378;2023-01-15T07:39:51;38.70;;;17.20;;
20076;SDS011;12348;42.710;23.378;2023-01-15T07:42:18;31.83;;;15.40;;
20076;SDS011;12348;42.710;23.378;2023-01-15T07:45:02;29.87;;;12.87;;
20076;SDS011;12348;42.710;23.378;2023-01-15T07:47:47;26.20;;;13.50;;
20076;SDS011;12348;42.710;23.378;2023-01-15T07:50:31;28.97;;;13.10;;
20076;SDS011;12348;42.710;23.378;2023-01-15T07:52:57;26.83;;;12.60;;
20076;SDS011;12348;42.710;23.378;2023-01-15T07:55:26;25.17;;;11.87;;
20076;SDS011;12348;42.710;23.378;2023-01-15T07:57:52;26.70;;;12.47;;
20076;SDS011;12348;42.710;23.378;2023-01-15T08:00:20;24.27;;;11.73;;
20076;SDS011;12348;42.710;23.378;2023-01-15T08:02:48;25.13;;;11.27;;
20076;SDS011;12348;42.710;23.378;2023-01-15T08:05:15;19.07;;;11.77;;
20076;SDS011;12348;42.710;23.378;2023-01-15T08:07:43;20.60;;;10.93;;
20076;SDS011;12348;42.710;23.378;2023-01-15T08:10:11;22.40;;;11.67;;
20076;SDS011;12348;42.710;23.378;2023-01-15T08:12:41;21.70;;;10.20;;
20076;SDS011;12348;42.710;23.378;2023-01-15T08:15:25;18.73;;;11.40;;
20076;SDS011;12348;42.710;23.378;2023-01-15T08:17:55;19.00;;;11.03;;
20076;SDS011;12348;42.710;23.378;2023-01-15T08:20:24;24.03;;;12.17;;
20076;SDS011;12348;42.710;23.378;2023-01-15T08:22:52;24.33;;;11.10;;
20076;SDS011;12348;42.710;23.378;2023-01-15T08:25:19;22.97;;;10.60;;
20076;SDS011;12348;42.710;23.378;2023-01-15T08:27:49;17.50;;;9.90;;
20076;SDS011;12348;42.710;23.378;2023-01-15T08:30:17;20.33;;;10.70;;
20076;SDS011;12348;42.710;23.378;2023-01-15T08:32:45;19.47;;;11.40;;
20076;SDS011;12348;42.710;23.378;2023-01-15T08:35:12;22.87;;;12.13;;
20076;SDS011;12348;42.710;23.378;2023-01-15T08:37:39;21.57;;;12.27;;
20076;SDS011;12348;42.710;23.378;2023-01-15T08:40:07;25.00;;;11.73;;
20076;SDS011;12348;42.710;23.378;2023-01-15T08:42:34;24.43;;;11.60;;
20076;SDS011;12348;42.710;23.378;2023-01-15T08:45:03;26.70;;;13.53;;
20076;SDS011;12348;42.710;23.378;2023-01-15T08:47:30;28.47;;;14.27;;
20076;SDS011;12348;42.710;23.378;2023-01-15T08:49:57;26.63;;;11.97;;
20076;SDS011;12348;42.710;23.378;2023-01-15T08:52:23;27.57;;;10.50;;
20076;SDS011;12348;42.710;23.378;2023-01-15T08:54:50;30.17;;;12.07;;
20076;SDS011;12348;42.710;23.378;2023-01-15T08:57:17;26.47;;;11.70;;
20076;SDS011;12348;42.710;23.378;2023-01-15T08:59:43;24.93;;;10.93;;
20076;SDS011;12348;42.710;23.378;2023-01-15T09:02:14;24.40;;;11.40;;
20076;SDS011;12348;42.710;23.378;2023-01-15T09:04:41;30.20;;;12.43;;
20076;SDS011;12348;42.710;23.378;2023-01-15T09:07:09;20.37;;;11.20;;
20076;SDS011;12348;42.710;23.378;2023-01-15T09:09:36;20.40;;;9.67;;
20076;SDS011;12348;42.710;23.378;2023-01-15T09:12:03;22.30;;;10.50;;
20076;SDS011;12348;42.710;23.378;2023-01-15T09:14:30;23.97;;;11.77;;
20076;SDS011;12348;42.710;23.378;2023-01-15T09:16:57;26.80;;;12.10;;
20076;SDS011;12348;42.710;23.378;2023-01-15T09:19:25;24.00;;;12.13;;
20076;SDS011;12348;42.710;23.378;2023-01-15T09:21:52;22.70;;;10.63;;
20076;SDS011;12348;42.710;23.378;2023-01-15T09:24:19;24.37;;;10.67;;
20076;SDS011;12348;42.710;23.378;2023-01-15T09:26:45;25.57;;;12.27;;
20076;SDS011;12348;42.710;23.378;2023-01-15T09:29:12;22.43;;;10.80;;
20076;SDS011;12348;42.710;23.378;2023-01-15T09:31:39;25.87;;;11.47;;
20076;SDS011;12348;42.710;23.378;2023-01-15T09:34:06;21.30;;;10.73;;
20076;SDS011;12348;42.710;23.378;2023-01-15T09:36:34;23.47;;;10.90;;
20076;SDS011;12348;42.710;23.378;2023-01-15T09:39:02;23.27;;;12.00;;
20076;SDS011;12348;42.710;23.378;2023-01-15T09:41:32;18.53;;;9.93;;
20076;SDS011;12348;42.710;23.378;2023-01-15T09:44:31;26.30;;;11.07;;
20076;SDS011;12348;42.710;23.378;2023-01-15T09:47:08;18.67;;;9.30;;
20076;SDS011;12348;42.710;23.378;2023-01-15T09:49:42;21.20;;;10.67;;
20076;SDS011;12348;42.710;23.378;2023-01-15T09:52:23;22.63;;;11.90;;
20076;SDS011;12348;42.710;23.378;2023-01-15T09:54:56;23.60;;;12.43;;
20076;SDS011;12348;42.710;23.378;2023-01-15T09:57:30;25.53;;;13.40;;
20076;SDS011;12348;42.710;23.378;2023-01-15T10:00:00;19.40;;;10.03;;
20076;SDS011;12348;42.710;23.378;2023-01-15T10:02:33;23.03;;;10.50;;
20076;SDS011;12348;42.710;23.378;2023-01-15T10:05:06;21.77;;;10.60;;
20076;SDS011;12348;42.710;23.378;2023-01-15T10:07:40;19.33;;;9.33;;
20076;SDS011;12348;42.710;23.378;2023-01-15T10:10:11;16.80;;;7.93;;
20076;SDS011;12348;42.710;23.378;2023-01-15T10:12:40;25.17;;;9.03;;
20076;SDS011;12348;42.710;23.378;2023-01-15T10:15:15;15.43;;;8.87;;
20076;SDS011;12348;42.710;23.378;2023-01-15T10:17:48;18.83;;;9.30;;
20076;SDS011;12348;42.710;23.378;2023-01-15T10:20:22;17.27;;;10.00;;
20076;SDS011;12348;42.710;23.378;2023-01-15T10:23:08;22.90;;;10.20;;
20076;SDS011;12348;42.710;23.378;2023-01-15T10:25:47;16.20;;;8.53;;
20076;SDS011;12348;42.710;23.378;2023-01-15T10:28:20;20.57;;;10.67;;
20076;SDS011;12348;42.710;23.378;2023-01-15T10:30:50;24.77;;;11.40;;
20076;SDS011;12348;42.710;23.378;2023-01-15T10:33:30;21.73;;;10.30;;
20076;SDS011;12348;42.710;23.378;2023-01-15T10:36:12;26.80;;;12.73;;
20076;SDS011;12348;42.710;23.378;2023-01-15T10:38:46;19.43;;;10.03;;
20076;SDS011;12348;42.710;23.378;2023-01-15T10:41:25;23.13;;;11.07;;
20076;SDS011;12348;42.710;23.378;2023-01-15T10:44:04;16.03;;;9.10;;
20076;SDS011;12348;42.710;23.378;2023-01-15T10:46:39;23.70;;;10.07;;
20076;SDS011;12348;42.710;23.378;2023-01-15T10:49:10;33.87;;;13.90;;
20076;SDS011;12348;42.710;23.378;2023-01-15T10:51:41;20.90;;;10.53;;
20076;SDS011;12348;42.710;23.378;2023-01-15T10:54:13;25.40;;;10.60;;
20076;SDS011;12348;42.710;23.378;2023-01-15T10:56:50;15.77;;;7.30;;
20076;SDS011;12348;42.710;23.378;2023-01-15T10:59:29;15.30;;;6.93;;
20076;SDS011;12348;42.710;23.378;2023-01-15T11:02:02;16.43;;;6.03;;
20076;SDS011;12348;42.710;23.378;2023-01-15T11:04:41;12.67;;;6.27;;
20076;SDS011;12348;42.710;23.378;2023-01-15T11:07:08;17.43;;;7.00;;
20076;SDS011;12348;42.710;23.378;2023-01-15T11:09:38;12.30;;;6.00;;
20076;SDS011;12348;42.710;23.378;2023-01-15T11:12:15;14.70;;;7.13;;
20076;SDS011;12348;42.710;23.378;2023-01-15T11:15:12;13.27;;;5.90;;
20076;SDS011;12348;42.710;23.378;2023-01-15T11:17:59;13.43;;;7.40;;
20076;SDS011;12348;42.710;23.378;2023-01-15T11:20:45;12.40;;;5.97;;
20076;SDS011;12348;42.710;23.378;2023-01-15T11:23:14;9.77;;;5.13;;
20076;SDS011;12348;42.710;23.378;2023-01-15T11:25:48;11.30;;;5.77;;
20076;SDS011;12348;42.710;23.378;2023-01-15T11:28:28;9.30;;;5.67;;
20076;SDS011;12348;42.710;23.378;2023-01-15T11:30:58;11.20;;;4.73;;
20076;SDS011;12348;42.710;23.378;2023-01-15T11:33:26;7.87;;;4.70;;
20076;SDS011;12348;42.710;23.378;2023-01-15T11:35:56;12.20;;;6.07;;
20076;SDS011;12348;42.710;23.378;2023-01-15T11:38:25;9.93;;;6.13;;
20076;SDS011;12348;42.710;23.378;2023-01-15T11:40:55;11.53;;;5.70;;
20076;SDS011;12348;42.710;23.378;2023-01-15T11:43:25;8.87;;;5.37;;
20076;SDS011;12348;42.710;23.378;2023-01-15T11:49:14;11.27;;;5.20;;
20076;SDS011;12348;42.710;23.378;2023-01-15T11:52:00;8.50;;;4.80;;
20076;SDS011;12348;42.710;23.378;2023-01-15T11:54:28;9.53;;;6.20;;
20076;SDS011;12348;42.710;23.378;2023-01-15T11:56:59;12.97;;;6.30;;
20076;SDS011;12348;42.710;23.378;2023-01-15T11:59:26;9.53;;;5.13;;
20076;SDS011;12348;42.710;23.378;2023-01-15T12:01:53;10.10;;;4.87;;
20076;SDS011;12348;42.710;23.378;2023-01-15T12:04:26;10.87;;;6.33;;
20076;SDS011;12348;42.710;23.378;2023-01-15T12:06:58;14.53;;;7.13;;
20076;SDS011;12348;42.710;23.378;2023-01-15T12:09:28;7.37;;;4.33;;
20076;SDS011;12348;42.710;23.378;2023-01-15T12:12:06;6.83;;;3.77;;
20076;SDS011;12348;42.710;23.378;2023-01-15T12:14:50;7.30;;;4.63;;
20076;SDS011;12348;42.710;23.378;2023-01-15T12:17:30;10.47;;;5.33;;
20076;SDS011;12348;42.710;23.378;2023-01-15T12:20:20;11.80;;;5.53;;
20076;SDS011;12348;42.710;23.378;2023-01-15T12:23:12;8.67;;;4.43;;
20076;SDS011;12348;42.710;23.378;2023-01-15T12:25:58;8.37;;;4.93;;
20076;SDS011;12348;42.710;23.378;2023-01-15T12:28:35;10.17;;;5.43;;
20076;SDS011;12348;42.710;23.378;2023-01-15T12:31:07;8.37;;;4.53;;
20076;SDS011;12348;42.710;23.378;2023-01-15T12:33:42;10.17;;;5.43;;
20076;SDS011;12348;42.710;23.378;2023-01-15T12:36:14;10.87;;;5.57;;
20076;SDS011;12348;42.710;23.378;2023-01-15T12:38:46;7.43;;;4.33;;
20076;SDS011;12348;42.710;23.378;2023-01-15T12:41:16;9.83;;;5.00;;
20076;SDS011;12348;42.710;23.378;2023-01-15T12:43:50;8.17;;;4.47;;
20076;SDS011;12348;42.710;23.378;2023-01-15T12:46:40;8.17;;;4.97;;
20076;SDS011;12348;42.710;23.378;2023-01-15T12:49:11;10.67;;;5.60;;
20076;SDS011;12348;42.710;23.378;2023-01-15T12:51:49;8.20;;;5.23;;
20076;SDS011;12348;42.710;23.378;2023-01-15T12:54:24;13.37;;;6.57;;
20076;SDS011;12348;42.710;23.378;2023-01-15T12:56:57;9.83;;;5.87;;
20076;SDS011;12348;42.710;23.378;2023-01-15T12:59:32;10.33;;;5.23;;
20076;SDS011;12348;42.710;23.378;2023-01-15T13:02:08;9.67;;;4.87;;
20076;SDS011;12348;42.710;23.378;2023-01-15T13:04:41;11.13;;;5.57;;
20076;SDS011;12348;42.710;23.378;2023-01-15T13:07:13;8.03;;;5.20;;
20076;SDS011;12348;42.710;23.378;2023-01-15T13:09:45;8.87;;;4.30;;
20076;SDS011;12348;42.710;23.378;2023-01-15T13:12:19;10.70;;;5.93;;
20076;SDS011;12348;42.710;23.378;2023-01-15T13:14:47;6.63;;;4.50;;
20076;SDS011;12348;42.710;23.378;2023-01-15T13:17:17;8.23;;;4.67;;
20076;SDS011;12348;42.710;23.378;2023-01-15T13:19:56;11.60;;;5.37;;
20076;SDS011;12348;42.710;23.378;2023-01-15T13:22:34;10.73;;;4.27;;
20076;SDS011;12348;42.710;23.378;2023-01-15T13:25:23;5.87;;;4.00;;
20076;SDS011;12348;42.710;23.378;2023-01-15T13:28:03;10.53;;;5.10;;
20076;SDS011;12348;42.710;23.378;2023-01-15T13:30:48;14.37;;;6.20;;
20076;SDS011;12348;42.710;23.378;2023-01-15T13:33:25;6.80;;;3.83;;
20076;SDS011;12348;42.710;23.378;2023-01-15T13:36:01;11.43;;;5.83;;
20076;SDS011;12348;42.710;23.378;2023-01-15T13:38:36;13.77;;;6.83;;
20076;SDS011;12348;42.710;23.378;2023-01-15T13:41:07;9.80;;;5.47;;
20076;SDS011;12348;42.710;23.378;2023-01-15T13:43:35;12.47;;;7.30;;
20076;SDS011;12348;42.710;23.378;2023-01-15T13:46:06;13.67;;;6.00;;
20076;SDS011;12348;42.710;23.378;2023-01-15T13:48:39;8.47;;;4.73;;
20076;SDS011;12348;42.710;23.378;2023-01-15T13:51:19;7.03;;;4.67;;
20076;SDS011;12348;42.710;23.378;2023-01-15T13:53:51;6.87;;;4.53;;
20076;SDS011;12348;42.710;23.378;2023-01-15T13:56:25;8.60;;;4.73;;
20076;SDS011;12348;42.710;23.378;2023-01-15T13:58:54;10.83;;;5.07;;
20076;SDS011;12348;42.710;23.378;2023-01-15T14:01:25;9.33;;;4.80;;
20076;SDS011;12348;42.710;23.378;2023-01-15T14:04:00;10.53;;;6.07;;
20076;SDS011;12348;42.710;23.378;2023-01-15T14:06:38;12.87;;;6.20;;
20076;SDS011;12348;42.710;23.378;2023-01-15T14:09:09;10.03;;;5.60;;
20076;SDS011;12348;42.710;23.378;2023-01-15T14:11:37;8.87;;;5.20;;
20076;SDS011;12348;42.710;23.378;2023-01-15T14:14:12;12.07;;;6.93;;
20076;SDS011;12348;42.710;23.378;2023-01-15T14:17:11;9.47;;;5.30;;
20076;SDS011;12348;42.710;23.378;2023-01-15T14:20:12;11.33;;;5.70;;
20076;SDS011;12348;42.710;23.378;2023-01-15T14:22:53;10.63;;;4.73;;
20076;SDS011;12348;42.710;23.378;2023-01-15T14:25:35;8.13;;;4.77;;
20076;SDS011;12348;42.710;23.378;2023-01-15T14:28:21;5.47;;;3.23;;
20076;SDS011;12348;42.710;23.378;2023-01-15T14:31:08;8.50;;;4.03;;
20076;SDS011;12348;42.710;23.378;2023-01-15T14:34:02;11.80;;;6.07;;
20076;SDS011;12348;42.710;23.378;2023-01-15T14:36:38;12.87;;;6.80;;
20076;SDS011;12348;42.710;23.378;2023-01-15T14:39:19;12.40;;;6.77;;
20076;SDS011;12348;42.710;23.378;2023-01-15T14:41:54;13.63;;;7.43;;
20076;SDS011;12348;42.710;23.378;2023-01-15T14:44:43;17.47;;;7.77;;
20076;SDS011;12348;42.710;23.378;2023-01-15T14:47:16;11.40;;;7.30;;